sensor_id;sensor_type;location;lat;lon;timestamp;P1;durP1;ratioP1;P2;durP2;ratioP2
8058;SDS011;4072;42.668;23.396;2023-02-26T00:01:22;10.90;;;4.83;;
8058;SDS011;4072;42.668;23.396;2023-02-26T00:03:50;13.47;;;5.20;;
8058;SDS011;4072;42.668;23.396;2023-02-26T00:06:18;6.80;;;3.87;;
8058;SDS011;4072;42.668;23.396;2023-02-26T00:08:46;14.13;;;3.50;;
8058;SDS011;4072;42.668;23.396;2023-02-26T00:11:15;12.10;;;4.90;;
8058;SDS011;4072;42.668;23.396;2023-02-26T00:13:44;12.00;;;4.70;;
8058;SDS011;4072;42.668;23.396;2023-02-26T00:16:14;9.20;;;4.23;;
8058;SDS011;4072;42.668;23.396;2023-02-26T00:18:45;12.97;;;5.00;;
8058;SDS011;4072;42.668;23.396;2023-02-26T00:21:14;12.10;;;4.83;;
8058;SDS011;4072;42.668;23.396;2023-02-26T00:23:43;10.47;;;5.23;;
8058;SDS011;4072;42.668;23.396;2023-02-26T00:26:11;11.57;;;5.40;;
8058;SDS011;4072;42.668;23.396;2023-02-26T00:28:38;11.50;;;5.03;;
8058;SDS011;4072;42.668;23.396;2023-02-26T00:31:08;10.47;;;4.87;;
8058;SDS011;4072;42.668;23.396;2023-02-26T00:33:37;6.60;;;4.33;;
8058;SDS011;4072;42.668;23.396;2023-02-26T00:36:09;19.37;;;10.47;;
8058;SDS011;4072;42.668;23.396;2023-02-26T00:38:39;7.80;;;4.30;;
8058;SDS011;4072;42.668;23.396;2023-02-26T00:41:09;7.83;;;5.17;;
8058;SDS011;4072;42.668;23.396;2023-02-26T00:43:37;13.57;;;5.13;;
8058;SDS011;4072;42.668;23.396;2023-02-26T00:46:06;10.67;;;4.67;;
8058;SDS011;4072;42.668;23.396;2023-02-26T00:48:42;8.20;;;3.87;;
8058;SDS011;4072;42.668;23.396;2023-02-26T00:51:20;8.93;;;4.13;;
8058;SDS011;4072;42.668;23.396;2023-02-26T00:53:49;9.93;;;4.23;;
8058;SDS011;4072;42.668;23.396;2023-02-26T00:56:20;9.63;;;4.17;;
8058;SDS011;4072;42.668;23.396;2023-02-26T00:58:48;10.13;;;4.37;;
8058;SDS011;4072;42.668;23.396;2023-02-26T01:01:16;11.67;;;4.37;;
8058;SDS011;4072;42.668;23.396;2023-02-26T01:03:46;10.87;;;4.80;;
8058;SDS011;4072;42.668;23.396;2023-02-26T01:06:16;8.67;;;3.83;;
8058;SDS011;4072;42.668;23.396;2023-02-26T01:08:46;8.77;;;3.27;;
8058;SDS011;4072;42.668;23.396;2023-02-26T01:11:17;6.80;;;3.43;;
8058;SDS011;4072;42.668;23.396;2023-02-26T01:13:46;7.67;;;4.13;;
8058;SDS011;4072;42.668;23.396;2023-02-26T01:16:16;5.40;;;3.83;;
8058;SDS011;4072;42.668;23.396;2023-02-26T01:18:49;10.20;;;3.80;;
8058;SDS011;4072;42.668;23.396;2023-02-26T01:21:21;11.47;;;3.97;;
8058;SDS011;4072;42.668;23.396;2023-02-26T01:23:50;10.47;;;4.10;;
8058;SDS011;4072;42.668;23.396;2023-02-26T01:26:21;7.67;;;3.77;;
8058;SDS011;4072;42.668;23.396;2023-02-26T01:28:50;6.27;;;3.13;;
8058;SDS011;4072;42.668;23.396;2023-02-26T01:31:22;7.73;;;3.70;;
8058;SDS011;4072;42.668;23.396;2023-02-26T01:33:55;11.60;;;3.60;;
8058;SDS011;4072;42.668;23.396;2023-02-26T01:36:26;10.67;;;3.67;;
8058;SDS011;4072;42.668;23.396;2023-02-26T01:38:56;10.37;;;3.47;;
8058;SDS011;4072;42.668;23.396;2023-02-26T01:41:28;9.10;;;4.00;;
8058;SDS011;4072;42.668;23.396;2023-02-26T01:43:59;6.27;;;3.73;;
8058;SDS011;4072;42.668;23.396;2023-02-26T01:46:31;8.43;;;3.90;;
8058;SDS011;4072;42.668;23.396;2023-02-26T01:49:03;11.07;;;4.50;;
8058;SDS011;4072;42.668;23.396;2023-02-26T01:51:42;7.20;;;3.53;;
8058;SDS011;4072;42.668;23.396;2023-02-26T01:54:12;9.30;;;4.00;;
8058;SDS011;4072;42.668;23.396;2023-02-26T01:56:40;9.37;;;3.97;;
8058;SDS011;4072;42.668;23.396;2023-02-26T01:59:08;10.53;;;3.97;;
8058;SDS011;4072;42.668;23.396;2023-02-26T02:01:36;14.27;;;4.00;;
8058;SDS011;4072;42.668;23.396;2023-02-26T02:04:07;9.23;;;3.97;;
8058;SDS011;4072;42.668;23.396;2023-02-26T02:06:36;8.17;;;4.00;;
8058;SDS011;4072;42.668;23.396;2023-02-26T02:09:05;6.93;;;3.57;;
8058;SDS011;4072;42.668;23.396;2023-02-26T02:11:33;10.47;;;3.87;;
8058;SDS011;4072;42.668;23.396;2023-02-26T02:14:04;11.20;;;4.00;;
8058;SDS011;4072;42.668;23.396;2023-02-26T02:16:39;9.63;;;3.07;;
8058;SDS011;4072;42.668;23.396;2023-02-26T02:19:17;6.20;;;3.37;;
8058;SDS011;4072;42.668;23.396;2023-02-26T02:21:54;7.63;;;3.73;;
8058;SDS011;4072;42.668;23.396;2023-02-26T02:24:31;19.03;;;3.67;;
8058;SDS011;4072;42.668;23.396;2023-02-26T02:27:02;8.67;;;4.20;;
8058;SDS011;4072;42.668;23.396;2023-02-26T02:29:51;10.73;;;4.53;;
8058;SDS011;4072;42.668;23.396;2023-02-26T02:32:23;9.87;;;3.37;;
8058;SDS011;4072;42.668;23.396;2023-02-26T02:34:54;7.53;;;3.57;;
8058;SDS011;4072;42.668;23.396;2023-02-26T02:37:25;11.23;;;4.07;;
8058;SDS011;4072;42.668;23.396;2023-02-26T02:39:55;9.87;;;3.57;;
8058;SDS011;4072;42.668;23.396;2023-02-26T02:42:25;12.10;;;3.77;;
8058;SDS011;4072;42.668;23.396;2023-02-26T02:44:55;11.23;;;3.30;;
8058;SDS011;4072;42.668;23.396;2023-02-26T02:47:25;8.30;;;3.20;;
8058;SDS011;4072;42.668;23.396;2023-02-26T02:49:55;8.43;;;3.10;;
8058;SDS011;4072;42.668;23.396;2023-02-26T02:52:25;9.93;;;4.03;;
8058;SDS011;4072;42.668;23.396;2023-02-26T02:54:58;11.53;;;3.73;;
8058;SDS011;4072;42.668;23.396;2023-02-26T02:57:28;11.40;;;3.93;;
8058;SDS011;4072;42.668;23.396;2023-02-26T02:59:59;10.10;;;4.50;;
8058;SDS011;4072;42.668;23.396;2023-02-26T03:02:30;15.87;;;4.77;;
8058;SDS011;4072;42.668;23.396;2023-02-26T03:04:58;35.50;;;17.17;;
8058;SDS011;4072;42.668;23.396;2023-02-26T03:07:26;22.37;;;8.67;;
8058;SDS011;4072;42.668;23.396;2023-02-26T03:09:55;12.87;;;4.30;;
8058;SDS011;4072;42.668;23.396;2023-02-26T03:12:24;26.47;;;14.07;;
8058;SDS011;4072;42.668;23.396;2023-02-26T03:14:53;17.23;;;9.10;;
8058;SDS011;4072;42.668;23.396;2023-02-26T03:17:24;31.60;;;15.97;;
8058;SDS011;4072;42.668;23.396;2023-02-26T03:19:58;48.47;;;23.43;;
8058;SDS011;4072;42.668;23.396;2023-02-26T03:22:31;18.17;;;9.63;;
8058;SDS011;4072;42.668;23.396;2023-02-26T03:25:04;8.43;;;4.50;;
8058;SDS011;4072;42.668;23.396;2023-02-26T03:27:34;17.23;;;9.17;;
8058;SDS011;4072;42.668;23.396;2023-02-26T03:30:05;9.53;;;4.33;;
8058;SDS011;4072;42.668;23.396;2023-02-26T03:32:35;8.37;;;4.20;;
8058;SDS011;4072;42.668;23.396;2023-02-26T03:35:11;9.20;;;3.90;;
8058;SDS011;4072;42.668;23.396;2023-02-26T03:37:40;9.90;;;4.13;;
8058;SDS011;4072;42.668;23.396;2023-02-26T03:40:11;6.63;;;4.57;;
8058;SDS011;4072;42.668;23.396;2023-02-26T03:42:41;7.73;;;4.07;;
8058;SDS011;4072;42.668;23.396;2023-02-26T03:45:11;9.40;;;3.27;;
8058;SDS011;4072;42.668;23.396;2023-02-26T03:47:40;23.43;;;11.87;;
8058;SDS011;4072;42.668;23.396;2023-02-26T03:50:14;20.13;;;9.87;;
8058;SDS011;4072;42.668;23.396;2023-02-26T03:52:44;14.77;;;6.17;;
8058;SDS011;4072;42.668;23.396;2023-02-26T03:55:14;11.50;;;4.87;;
8058;SDS011;4072;42.668;23.396;2023-02-26T03:57:43;7.60;;;4.17;;
8058;SDS011;4072;42.668;23.396;2023-02-26T04:00:12;6.63;;;3.50;;
8058;SDS011;4072;42.668;23.396;2023-02-26T04:02:41;9.40;;;2.93;;
8058;SDS011;4072;42.668;23.396;2023-02-26T04:05:14;6.57;;;3.30;;
8058;SDS011;4072;42.668;23.396;2023-02-26T04:07:43;8.07;;;3.03;;
8058;SDS011;4072;42.668;23.396;2023-02-26T04:10:13;10.63;;;3.17;;
8058;SDS011;4072;42.668;23.396;2023-02-26T04:12:41;10.80;;;4.00;;
8058;SDS011;4072;42.668;23.396;2023-02-26T04:15:10;5.40;;;3.23;;
8058;SDS011;4072;42.668;23.396;2023-02-26T04:17:38;6.47;;;3.40;;
8058;SDS011;4072;42.668;23.396;2023-02-26T04:20:06;7.57;;;3.40;;
8058;SDS011;4072;42.668;23.396;2023-02-26T04:22:37;9.80;;;3.53;;
8058;SDS011;4072;42.668;23.396;2023-02-26T04:25:07;11.87;;;3.90;;
8058;SDS011;4072;42.668;23.396;2023-02-26T04:27:35;7.87;;;3.13;;
8058;SDS011;4072;42.668;23.396;2023-02-26T04:30:03;7.50;;;3.83;;
8058;SDS011;4072;42.668;23.396;2023-02-26T04:32:31;7.17;;;3.43;;
8058;SDS011;4072;42.668;23.396;2023-02-26T04:34:59;11.33;;;2.50;;
8058;SDS011;4072;42.668;23.396;2023-02-26T04:37:27;9.50;;;3.20;;
8058;SDS011;4072;42.668;23.396;2023-02-26T04:39:56;8.67;;;3.00;;
8058;SDS011;4072;42.668;23.396;2023-02-26T04:42:27;6.77;;;3.27;;
8058;SDS011;4072;42.668;23.396;2023-02-26T04:44:55;6.10;;;2.40;;
8058;SDS011;4072;42.668;23.396;2023-02-26T04:47:23;8.97;;;4.00;;
8058;SDS011;4072;42.668;23.396;2023-02-26T04:49:51;8.73;;;3.30;;
8058;SDS011;4072;42.668;23.396;2023-02-26T04:52:19;11.97;;;3.73;;
8058;SDS011;4072;42.668;23.396;2023-02-26T04:54:47;9.80;;;3.90;;
8058;SDS011;4072;42.668;23.396;2023-02-26T04:57:16;10.13;;;3.00;;
8058;SDS011;4072;42.668;23.396;2023-02-26T04:59:44;10.77;;;3.53;;
8058;SDS011;4072;42.668;23.396;2023-02-26T05:02:12;8.23;;;2.60;;
8058;SDS011;4072;42.668;23.396;2023-02-26T05:04:40;9.93;;;2.73;;
8058;SDS011;4072;42.668;23.396;2023-02-26T05:07:10;12.83;;;3.17;;
8058;SDS011;4072;42.668;23.396;2023-02-26T05:09:38;8.40;;;3.07;;
8058;SDS011;4072;42.668;23.396;2023-02-26T05:12:06;12.17;;;3.23;;
8058;SDS011;4072;42.668;23.396;2023-02-26T05:14:35;9.53;;;2.93;;
8058;SDS011;4072;42.668;23.396;2023-02-26T05:17:03;10.03;;;2.97;;
8058;SDS011;4072;42.668;23.396;2023-02-26T05:19:31;7.07;;;2.90;;
8058;SDS011;4072;42.668;23.396;2023-02-26T05:22:00;5.87;;;3.33;;
8058;SDS011;4072;42.668;23.396;2023-02-26T05:24:28;8.80;;;3.63;;
8058;SDS011;4072;42.668;23.396;2023-02-26T05:26:56;10.97;;;3.97;;
8058;SDS011;4072;42.668;23.396;2023-02-26T05:29:24;8.80;;;3.27;;
8058;SDS011;4072;42.668;23.396;2023-02-26T05:31:53;6.90;;;3.47;;
8058;SDS011;4072;42.668;23.396;2023-02-26T05:34:21;9.07;;;3.97;;
8058;SDS011;4072;42.668;23.396;2023-02-26T05:36:49;11.90;;;3.77;;
8058;SDS011;4072;42.668;23.396;2023-02-26T05:39:17;10.93;;;3.20;;
8058;SDS011;4072;42.668;23.396;2023-02-26T05:41:45;8.80;;;2.80;;
8058;SDS011;4072;42.668;23.396;2023-02-26T05:44:13;14.97;;;4.00;;
8058;SDS011;4072;42.668;23.396;2023-02-26T05:46:41;15.03;;;3.97;;
8058;SDS011;4072;42.668;23.396;2023-02-26T05:49:10;12.27;;;4.37;;
8058;SDS011;4072;42.668;23.396;2023-02-26T05:51:38;10.33;;;3.33;;
8058;SDS011;4072;42.668;23.396;2023-02-26T05:54:08;9.50;;;3.60;;
8058;SDS011;4072;42.668;23.396;2023-02-26T05:56:35;9.80;;;3.07;;
8058;SDS011;4072;42.668;23.396;2023-02-26T05:59:03;11.03;;;3.60;;
8058;SDS011;4072;42.668;23.396;2023-02-26T06:01:33;10.43;;;3.43;;
8058;SDS011;4072;42.668;23.396;2023-02-26T06:04:02;6.87;;;3.27;;
8058;SDS011;4072;42.668;23.396;2023-02-26T06:06:32;15.20;;;4.57;;
8058;SDS011;4072;42.668;23.396;2023-02-26T06:09:00;15.63;;;3.80;;
8058;SDS011;4072;42.668;23.396;2023-02-26T06:11:28;11.53;;;3.47;;
8058;SDS011;4072;42.668;23.396;2023-02-26T06:13:59;11.60;;;3.37;;
8058;SDS011;4072;42.668;23.396;2023-02-26T06:16:27;11.63;;;5.17;;
8058;SDS011;4072;42.668;23.396;2023-02-26T06:18:55;10.73;;;4.03;;
8058;SDS011;4072;42.668;23.396;2023-02-26T06:21:23;9.97;;;3.27;;
8058;SDS011;4072;42.668;23.396;2023-02-26T06:23:52;9.40;;;3.83;;
8058;SDS011;4072;42.668;23.396;2023-02-26T06:26:20;9.53;;;3.33;;
8058;SDS011;4072;42.668;23.396;2023-02-26T06:28:52;8.40;;;3.70;;
8058;SDS011;4072;42.668;23.396;2023-02-26T06:31:19;8.60;;;4.33;;
8058;SDS011;4072;42.668;23.396;2023-02-26T06:33:47;15.67;;;3.63;;
8058;SDS011;4072;42.668;23.396;2023-02-26T06:36:15;15.00;;;5.60;;
8058;SDS011;4072;42.668;23.396;2023-02-26T06:38:43;13.07;;;3.70;;
8058;SDS011;4072;42.668;23.396;2023-02-26T06:41:12;17.13;;;5.40;;
8058;SDS011;4072;42.668;23.396;2023-02-26T06:43:40;16.07;;;3.37;;
8058;SDS011;4072;42.668;23.396;2023-02-26T06:46:08;19.87;;;4.10;;
8058;SDS011;4072;42.668;23.396;2023-02-26T06:48:36;8.07;;;2.80;;
8058;SDS011;4072;42.668;23.396;2023-02-26T06:51:04;8.50;;;3.00;;
8058;SDS011;4072;42.668;23.396;2023-02-26T06:53:32;12.47;;;3.30;;
8058;SDS011;4072;42.668;23.396;2023-02-26T06:56:00;11.53;;;3.77;;
8058;SDS011;4072;42.668;23.396;2023-02-26T06:58:30;13.10;;;3.63;;
8058;SDS011;4072;42.668;23.396;2023-02-26T07:00:58;14.23;;;3.50;;
8058;SDS011;4072;42.668;23.396;2023-02-26T07:03:25;10.60;;;3.13;;
8058;SDS011;4072;42.668;23.396;2023-02-26T07:05:53;9.73;;;2.93;;
8058;SDS011;4072;42.668;23.396;2023-02-26T07:08:21;12.73;;;3.20;;
8058;SDS011;4072;42.668;23.396;2023-02-26T07:10:50;12.73;;;4.03;;
8058;SDS011;4072;42.668;23.396;2023-02-26T07:13:18;13.33;;;3.27;;
8058;SDS011;4072;42.668;23.396;2023-02-26T07:15:54;10.40;;;3.67;;
8058;SDS011;4072;42.668;23.396;2023-02-26T07:18:22;16.20;;;4.50;;
8058;SDS011;4072;42.668;23.396;2023-02-26T07:20:52;14.53;;;5.07;;
8058;SDS011;4072;42.668;23.396;2023-02-26T07:23:20;17.63;;;5.73;;
8058;SDS011;4072;42.668;23.396;2023-02-26T07:25:48;17.10;;;5.77;;
8058;SDS011;4072;42.668;23.396;2023-02-26T07:28:16;14.47;;;3.70;;
8058;SDS011;4072;42.668;23.396;2023-02-26T07:30:47;11.43;;;3.83;;
8058;SDS011;4072;42.668;23.396;2023-02-26T07:33:20;17.07;;;3.77;;
8058;SDS011;4072;42.668;23.396;2023-02-26T07:35:48;14.00;;;4.17;;
8058;SDS011;4072;42.668;23.396;2023-02-26T07:38:16;16.00;;;4.10;;
8058;SDS011;4072;42.668;23.396;2023-02-26T07:40:45;11.63;;;3.17;;
8058;SDS011;4072;42.668;23.396;2023-02-26T07:43:13;12.13;;;3.73;;
8058;SDS011;4072;42.668;23.396;2023-02-26T07:45:41;15.80;;;5.20;;
8058;SDS011;4072;42.668;23.396;2023-02-26T07:48:09;11.40;;;3.97;;
8058;SDS011;4072;42.668;23.396;2023-02-26T07:50:38;9.00;;;3.47;;
8058;SDS011;4072;42.668;23.396;2023-02-26T07:53:06;15.27;;;4.10;;
8058;SDS011;4072;42.668;23.396;2023-02-26T07:55:34;15.80;;;4.27;;
8058;SDS011;4072;42.668;23.396;2023-02-26T07:58:02;16.13;;;4.47;;
8058;SDS011;4072;42.668;23.396;2023-02-26T08:00:30;18.27;;;4.37;;
8058;SDS011;4072;42.668;23.396;2023-02-26T08:02:58;17.77;;;3.73;;
8058;SDS011;4072;42.668;23.396;2023-02-26T08:05:26;8.90;;;3.27;;
8058;SDS011;4072;42.668;23.396;2023-02-26T08:07:56;14.57;;;4.20;;
8058;SDS011;4072;42.668;23.396;2023-02-26T08:10:27;12.53;;;4.00;;
8058;SDS011;4072;42.668;23.396;2023-02-26T08:12:56;9.50;;;3.67;;
8058;SDS011;4072;42.668;23.396;2023-02-26T08:15:24;11.77;;;3.33;;
8058;SDS011;4072;42.668;23.396;2023-02-26T08:17:52;17.40;;;3.60;;
8058;SDS011;4072;42.668;23.396;2023-02-26T08:20:21;11.60;;;3.63;;
8058;SDS011;4072;42.668;23.396;2023-02-26T08:22:51;11.87;;;3.50;;
8058;SDS011;4072;42.668;23.396;2023-02-26T08:25:20;16.13;;;4.03;;
8058;SDS011;4072;42.668;23.396;2023-02-26T08:27:47;17.27;;;4.03;;
8058;SDS011;4072;42.668;23.396;2023-02-26T08:30:15;17.67;;;4.17;;
8058;SDS011;4072;42.668;23.396;2023-02-26T08:32:43;13.97;;;3.77;;
8058;SDS011;4072;42.668;23.396;2023-02-26T08:35:12;23.67;;;4.17;;
8058;SDS011;4072;42.668;23.396;2023-02-26T08:37:39;15.77;;;3.57;;
8058;SDS011;4072;42.668;23.396;2023-02-26T08:40:08;21.27;;;4.07;;
8058;SDS011;4072;42.668;23.396;2023-02-26T08:42:39;24.63;;;4.93;;
8058;SDS011;4072;42.668;23.396;2023-02-26T08:45:08;18.10;;;4.23;;
8058;SDS011;4072;42.668;23.396;2023-02-26T08:47:38;13.40;;;3.47;;
8058;SDS011;4072;42.668;23.396;2023-02-26T08:50:22;14.60;;;3.73;;
8058;SDS011;4072;42.668;23.396;2023-02-26T08:52:50;15.30;;;3.63;;
8058;SDS011;4072;42.668;23.396;2023-02-26T08:55:18;20.93;;;3.77;;
8058;SDS011;4072;42.668;23.396;2023-02-26T08:57:47;13.07;;;3.60;;
8058;SDS011;4072;42.668;23.396;2023-02-26T09:00:15;10.87;;;2.80;;
8058;SDS011;4072;42.668;23.396;2023-02-26T09:02:44;8.27;;;3.60;;
8058;SDS011;4072;42.668;23.396;2023-02-26T09:05:12;11.80;;;3.80;;
8058;SDS011;4072;42.668;23.396;2023-02-26T09:07:41;10.30;;;3.43;;
8058;SDS011;4072;42.668;23.396;2023-02-26T09:10:11;13.00;;;3.80;;
8058;SDS011;4072;42.668;23.396;2023-02-26T09:12:39;12.70;;;3.27;;
8058;SDS011;4072;42.668;23.396;2023-02-26T09:15:09;16.33;;;3.73;;
8058;SDS011;4072;42.668;23.396;2023-02-26T09:17:38;11.37;;;3.57;;
8058;SDS011;4072;42.668;23.396;2023-02-26T09:20:06;9.67;;;4.20;;
8058;SDS011;4072;42.668;23.396;2023-02-26T09:22:34;10.87;;;3.60;;
8058;SDS011;4072;42.668;23.396;2023-02-26T09:25:04;12.13;;;4.07;;
8058;SDS011;4072;42.668;23.396;2023-02-26T09:27:32;9.10;;;3.43;;
8058;SDS011;4072;42.668;23.396;2023-02-26T09:30:01;10.93;;;3.97;;
8058;SDS011;4072;42.668;23.396;2023-02-26T09:32:30;6.83;;;2.60;;
8058;SDS011;4072;42.668;23.396;2023-02-26T09:34:58;11.93;;;3.53;;
8058;SDS011;4072;42.668;23.396;2023-02-26T09:37:26;9.33;;;3.57;;
8058;SDS011;4072;42.668;23.396;2023-02-26T09:39:53;11.27;;;4.33;;
8058;SDS011;4072;42.668;23.396;2023-02-26T09:42:26;12.00;;;5.07;;
8058;SDS011;4072;42.668;23.396;2023-02-26T09:44:55;9.73;;;4.30;;
8058;SDS011;4072;42.668;23.396;2023-02-26T09:47:26;9.03;;;4.17;;
8058;SDS011;4072;42.668;23.396;2023-02-26T09:49:56;11.60;;;4.40;;
8058;SDS011;4072;42.668;23.396;2023-02-26T09:52:28;14.73;;;3.70;;
8058;SDS011;4072;42.668;23.396;2023-02-26T09:54:59;15.30;;;3.77;;
8058;SDS011;4072;42.668;23.396;2023-02-26T09:57:31;14.30;;;4.63;;
8058;SDS011;4072;42.668;23.396;2023-02-26T09:59:59;14.37;;;3.83;;
8058;SDS011;4072;42.668;23.396;2023-02-26T10:02:31;16.10;;;4.63;;
8058;SDS011;4072;42.668;23.396;2023-02-26T10:05:03;20.53;;;4.87;;
8058;SDS011;4072;42.668;23.396;2023-02-26T10:07:37;9.87;;;3.27;;
8058;SDS011;4072;42.668;23.396;2023-02-26T10:10:11;11.63;;;3.97;;
8058;SDS011;4072;42.668;23.396;2023-02-26T10:12:42;16.87;;;3.43;;
8058;SDS011;4072;42.668;23.396;2023-02-26T10:15:11;13.17;;;3.47;;
8058;SDS011;4072;42.668;23.396;2023-02-26T10:17:51;13.67;;;4.93;;
8058;SDS011;4072;42.668;23.396;2023-02-26T10:20:22;17.33;;;4.27;;
8058;SDS011;4072;42.668;23.396;2023-02-26T10:22:54;16.10;;;5.53;;
8058;SDS011;4072;42.668;23.396;2023-02-26T10:25:24;12.10;;;3.90;;
8058;SDS011;4072;42.668;23.396;2023-02-26T10:27:54;11.33;;;3.87;;
8058;SDS011;4072;42.668;23.396;2023-02-26T10:30:27;15.53;;;4.30;;
8058;SDS011;4072;42.668;23.396;2023-02-26T10:32:58;7.03;;;3.10;;
8058;SDS011;4072;42.668;23.396;2023-02-26T10:35:34;7.17;;;3.03;;
8058;SDS011;4072;42.668;23.396;2023-02-26T10:38:04;8.57;;;3.23;;
8058;SDS011;4072;42.668;23.396;2023-02-26T10:40:37;14.03;;;3.67;;
8058;SDS011;4072;42.668;23.396;2023-02-26T10:43:08;10.53;;;3.60;;
8058;SDS011;4072;42.668;23.396;2023-02-26T10:45:42;11.50;;;3.43;;
8058;SDS011;4072;42.668;23.396;2023-02-26T10:48:22;11.27;;;3.50;;
8058;SDS011;4072;42.668;23.396;2023-02-26T10:50:54;9.87;;;3.20;;
8058;SDS011;4072;42.668;23.396;2023-02-26T10:53:23;15.03;;;4.63;;
8058;SDS011;4072;42.668;23.396;2023-02-26T10:55:51;15.20;;;4.50;;
8058;SDS011;4072;42.668;23.396;2023-02-26T10:58:23;10.50;;;3.47;;
8058;SDS011;4072;42.668;23.396;2023-02-26T11:00:52;8.30;;;2.80;;
8058;SDS011;4072;42.668;23.396;2023-02-26T11:03:25;10.37;;;3.87;;
8058;SDS011;4072;42.668;23.396;2023-02-26T11:05:56;13.57;;;4.10;;
8058;SDS011;4072;42.668;23.396;2023-02-26T11:08:25;15.87;;;4.90;;
8058;SDS011;4072;42.668;23.396;2023-02-26T11:10:55;16.37;;;4.53;;
8058;SDS011;4072;42.668;23.396;2023-02-26T11:13:24;7.70;;;3.97;;
8058;SDS011;4072;42.668;23.396;2023-02-26T11:15:53;9.03;;;3.20;;
8058;SDS011;4072;42.668;23.396;2023-02-26T11:18:23;13.33;;;3.30;;
8058;SDS011;4072;42.668;23.396;2023-02-26T11:20:53;10.33;;;3.00;;
8058;SDS011;4072;42.668;23.396;2023-02-26T11:23:23;12.40;;;4.00;;
8058;SDS011;4072;42.668;23.396;2023-02-26T11:25:53;16.73;;;4.10;;
8058;SDS011;4072;42.668;23.396;2023-02-26T11:28:23;9.03;;;3.23;;
8058;SDS011;4072;42.668;23.396;2023-02-26T11:30:51;11.93;;;4.10;;
8058;SDS011;4072;42.668;23.396;2023-02-26T11:33:21;14.30;;;4.37;;
8058;SDS011;4072;42.668;23.396;2023-02-26T11:35:49;14.77;;;3.20;;
8058;SDS011;4072;42.668;23.396;2023-02-26T11:38:21;11.90;;;2.93;;
8058;SDS011;4072;42.668;23.396;2023-02-26T11:40:53;14.10;;;3.27;;
8058;SDS011;4072;42.668;23.396;2023-02-26T11:43:22;10.77;;;3.77;;
8058;SDS011;4072;42.668;23.396;2023-02-26T11:45:52;9.73;;;3.43;;
8058;SDS011;4072;42.668;23.396;2023-02-26T11:48:22;13.37;;;3.50;;
8058;SDS011;4072;42.668;23.396;2023-02-26T11:50:51;9.50;;;3.13;;
8058;SDS011;4072;42.668;23.396;2023-02-26T11:53:23;8.80;;;3.20;;
8058;SDS011;4072;42.668;23.396;2023-02-26T11:55:59;7.70;;;3.23;;
8058;SDS011;4072;42.668;23.396;2023-02-26T11:58:28;10.10;;;3.30;;
8058;SDS011;4072;42.668;23.396;2023-02-26T12:00:58;12.20;;;4.07;;
8058;SDS011;4072;42.668;23.396;2023-02-26T12:03:28;13.43;;;6.30;;
8058;SDS011;4072;42.668;23.396;2023-02-26T12:05:58;9.83;;;3.17;;
8058;SDS011;4072;42.668;23.396;2023-02-26T12:08:28;12.97;;;3.17;;
8058;SDS011;4072;42.668;23.396;2023-02-26T12:11:07;15.53;;;4.00;;
8058;SDS011;4072;42.668;23.396;2023-02-26T12:13:40;11.07;;;4.80;;
8058;SDS011;4072;42.668;23.396;2023-02-26T12:16:12;8.80;;;3.60;;
8058;SDS011;4072;42.668;23.396;2023-02-26T12:18:47;15.10;;;3.73;;
8058;SDS011;4072;42.668;23.396;2023-02-26T12:21:23;12.43;;;3.63;;
8058;SDS011;4072;42.668;23.396;2023-02-26T12:24:12;9.20;;;3.80;;
8058;SDS011;4072;42.668;23.396;2023-02-26T12:26:45;9.57;;;3.80;;
8058;SDS011;4072;42.668;23.396;2023-02-26T12:29:21;12.10;;;4.00;;
8058;SDS011;4072;42.668;23.396;2023-02-26T12:32:00;12.53;;;4.77;;
8058;SDS011;4072;42.668;23.396;2023-02-26T12:34:37;14.63;;;4.53;;
8058;SDS011;4072;42.668;23.396;2023-02-26T12:37:16;11.57;;;5.10;;
8058;SDS011;4072;42.668;23.396;2023-02-26T12:39:51;18.07;;;4.10;;
8058;SDS011;4072;42.668;23.396;2023-02-26T12:42:24;10.97;;;5.10;;
8058;SDS011;4072;42.668;23.396;2023-02-26T12:45:00;16.03;;;5.23;;
8058;SDS011;4072;42.668;23.396;2023-02-26T12:47:34;20.27;;;5.60;;
8058;SDS011;4072;42.668;23.396;2023-02-26T12:50:07;15.20;;;6.30;;
8058;SDS011;4072;42.668;23.396;2023-02-26T12:52:50;11.77;;;4.37;;
8058;SDS011;4072;42.668;23.396;2023-02-26T12:55:22;12.40;;;4.43;;
8058;SDS011;4072;42.668;23.396;2023-02-26T12:58:03;14.37;;;4.73;;
8058;SDS011;4072;42.668;23.396;2023-02-26T13:00:41;14.43;;;4.63;;
8058;SDS011;4072;42.668;23.396;2023-02-26T13:06:13;14.00;;;5.30;;
8058;SDS011;4072;42.668;23.396;2023-02-26T13:08:48;13.60;;;4.27;;
8058;SDS011;4072;42.668;23.396;2023-02-26T13:11:19;13.30;;;4.80;;
8058;SDS011;4072;42.668;23.396;2023-02-26T13:16:38;16.63;;;5.50;;
8058;SDS011;4072;42.668;23.396;2023-02-26T13:19:11;12.60;;;4.87;;
8058;SDS011;4072;42.668;23.396;2023-02-26T13:21:42;13.50;;;5.70;;
8058;SDS011;4072;42.668;23.396;2023-02-26T13:24:12;15.50;;;5.80;;
8058;SDS011;4072;42.668;23.396;2023-02-26T13:26:41;12.47;;;5.43;;
8058;SDS011;4072;42.668;23.396;2023-02-26T13:29:14;12.30;;;4.77;;
8058;SDS011;4072;42.668;23.396;2023-02-26T13:31:49;16.47;;;5.27;;
8058;SDS011;4072;42.668;23.396;2023-02-26T13:34:25;18.23;;;5.43;;
8058;SDS011;4072;42.668;23.396;2023-02-26T13:36:55;13.67;;;5.63;;
8058;SDS011;4072;42.668;23.396;2023-02-26T13:39:33;14.50;;;4.87;;
8058;SDS011;4072;42.668;23.396;2023-02-26T13:42:05;13.43;;;4.83;;
8058;SDS011;4072;42.668;23.396;2023-02-26T13:44:38;17.17;;;4.57;;
8058;SDS011;4072;42.668;23.396;2023-02-26T13:47:14;17.03;;;5.10;;
8058;SDS011;4072;42.668;23.396;2023-02-26T13:49:47;14.90;;;5.00;;
8058;SDS011;4072;42.668;23.396;2023-02-26T13:52:21;11.40;;;4.77;;
8058;SDS011;4072;42.668;23.396;2023-02-26T13:54:49;16.13;;;5.13;;
8058;SDS011;4072;42.668;23.396;2023-02-26T13:57:22;27.10;;;6.37;;
8058;SDS011;4072;42.668;23.396;2023-02-26T13:59:52;18.90;;;5.73;;
8058;SDS011;4072;42.668;23.396;2023-02-26T14:05:29;14.00;;;5.00;;
8058;SDS011;4072;42.668;23.396;2023-02-26T14:08:18;17.73;;;4.77;;
8058;SDS011;4072;42.668;23.396;2023-02-26T14:10:53;17.27;;;5.93;;
8058;SDS011;4072;42.668;23.396;2023-02-26T14:13:21;21.00;;;4.90;;
8058;SDS011;4072;42.668;23.396;2023-02-26T14:15:58;21.47;;;5.77;;
8058;SDS011;4072;42.668;23.396;2023-02-26T14:18:34;20.20;;;5.23;;
8058;SDS011;4072;42.668;23.396;2023-02-26T14:23:51;16.87;;;5.43;;
8058;SDS011;4072;42.668;23.396;2023-02-26T14:26:19;15.47;;;5.43;;
8058;SDS011;4072;42.668;23.396;2023-02-26T14:28:55;17.20;;;5.53;;
8058;SDS011;4072;42.668;23.396;2023-02-26T14:31:24;21.17;;;5.43;;
8058;SDS011;4072;42.668;23.396;2023-02-26T14:33:58;18.67;;;5.60;;
8058;SDS011;4072;42.668;23.396;2023-02-26T14:36:29;19.13;;;5.90;;
8058;SDS011;4072;42.668;23.396;2023-02-26T14:39:00;27.03;;;7.03;;
8058;SDS011;4072;42.668;23.396;2023-02-26T14:41:32;25.93;;;7.23;;
8058;SDS011;4072;42.668;23.396;2023-02-26T14:44:02;25.10;;;6.60;;
8058;SDS011;4072;42.668;23.396;2023-02-26T14:46:33;24.77;;;7.30;;
8058;SDS011;4072;42.668;23.396;2023-02-26T14:49:01;35.27;;;7.57;;
8058;SDS011;4072;42.668;23.396;2023-02-26T14:51:34;24.03;;;7.27;;
8058;SDS011;4072;42.668;23.396;2023-02-26T14:54:13;25.33;;;6.63;;
8058;SDS011;4072;42.668;23.396;2023-02-26T14:56:50;19.83;;;6.23;;
8058;SDS011;4072;42.668;23.396;2023-02-26T14:59:22;23.93;;;6.70;;
8058;SDS011;4072;42.668;23.396;2023-02-26T15:01:52;25.57;;;6.77;;
8058;SDS011;4072;42.668;23.396;2023-02-26T15:04:38;33.33;;;7.40;;
8058;SDS011;4072;42.668;23.396;2023-02-26T15:07:12;36.47;;;8.00;;
8058;SDS011;4072;42.668;23.396;2023-02-26T15:09:52;25.97;;;6.50;;
8058;SDS011;4072;42.668;23.396;2023-02-26T15:12:26;25.80;;;6.63;;
8058;SDS011;4072;42.668;23.396;2023-02-26T15:15:07;27.27;;;6.93;;
8058;SDS011;4072;42.668;23.396;2023-02-26T15:17:45;29.10;;;6.50;;
8058;SDS011;4072;42.668;23.396;2023-02-26T15:20:17;25.83;;;6.43;;
8058;SDS011;4072;42.668;23.396;2023-02-26T15:25:34;25.80;;;7.47;;